Time;durP1;ratioP1;P1;durP2;ratioP2;P2;SDS_P1;SDS_P2;PMS_P1;PMS_P2;Temp;Humidity;BMP_temperature;BMP_pressure;BME280_temperature;BME280_humidity;BME280_pressure;Samples;Min_cycle;Max_cycle;Signal;HPM_P1;HPM_P2
2022/08/06 00:00:25;;;;;;;6.15;3.00;;;;;;;;;;10066004;28;20061;-68
2022/08/06 00:05:20;;;;;;;5.68;3.28;;;;;;;;;;10066190;28;20053;-68
2022/08/06 00:10:27;;;;;;;6.72;3.42;;;;;;;;;;10065177;28;20144;-69
2022/08/06 00:15:23;;;;;;;8.32;3.00;;;;;;;;;;10054377;28;20481;-68
2022/08/06 00:20:36;;;;;;;6.43;3.00;;;;;;;;;;10043535;28;20045;-67
2022/08/06 00:25:33;;;;;;;;;;;;;;;;;;10061848;28;20050;-68
2022/08/06 00:30:37;;;;;;;3.55;3.20;;;;;;;;;;10074094;28;19921;-68
2022/08/06 00:35:31;;;;;;;3.33;3.13;;;;;;;;;;10070931;28;20426;-68
2022/08/06 00:40:30;;;;;;;4.10;2.95;;;;;;;;;;10073053;28;20069;-68
2022/08/06 00:45:24;;;;;;;6.13;3.65;;;;;;;;;;10073775;28;20071;-68
2022/08/06 00:50:24;;;;;;;3.70;3.10;;;;;;;;;;10073696;28;20059;-68
2022/08/06 00:55:19;;;;;;;4.38;3.38;;;;;;;;;;10070012;28;20053;-69
2022/08/06 01:00:29;;;;;;;5.32;3.78;;;;;;;;;;10068432;28;20132;-68
2022/08/06 01:05:30;;;;;;;10.23;5.15;;;;;;;;;;10066711;28;20506;-68
2022/08/06 01:10:45;;;;;;;7.00;3.58;;;;;;;;;;10070741;28;20049;-68
2022/08/06 01:15:43;;;;;;;3.40;3.10;;;;;;;;;;10056580;28;20041;-68
2022/08/06 01:21:23;;;;;;;10.75;3.63;;;;;;;;;;10054892;28;20049;-68
2022/08/06 01:27:09;;;;;;;7.13;3.40;;;;;;;;;;10047834;28;20052;-68
2022/08/06 01:32:10;;;;;;;6.37;4.20;;;;;;;;;;10064638;28;20448;-68
2022/08/06 01:37:42;;;;;;;7.55;3.90;;;;;;;;;;10068582;28;20148;-68
2022/08/06 01:42:41;;;;;;;4.55;4.10;;;;;;;;;;10056706;28;20069;-68
2022/08/06 01:47:36;;;;;;;7.75;3.83;;;;;;;;;;10064857;28;20042;-68
2022/08/06 01:52:46;;;;;;;7.53;4.07;;;;;;;;;;10058765;28;20555;-68
2022/08/06 01:57:54;;;;;;;4.47;3.70;;;;;;;;;;10064783;28;20045;-67
2022/08/06 02:03:14;;;;;;;5.05;4.13;;;;;;;;;;10057106;28;20113;-67
2022/08/06 02:08:12;;;;;;;5.35;4.03;;;;;;;;;;10062055;28;20532;-68
2022/08/06 02:13:27;;;;;;;8.35;4.28;;;;;;;;;;10066114;28;20456;-68
2022/08/06 02:18:42;;;;;;;4.70;4.00;;;;;;;;;;10064472;28;20502;-67
2022/08/06 02:23:37;;;;;;;6.55;5.13;;;;;;;;;;10059628;28;20049;-67
2022/08/06 02:28:38;;;;;;;6.75;3.83;;;;;;;;;;10060953;28;20050;-68
2022/08/06 02:33:34;;;;;;;4.55;4.15;;;;;;;;;;10065942;28;20050;-67
2022/08/06 02:38:59;;;;;;;5.65;3.63;;;;;;;;;;10065928;28;20392;-68
2022/08/06 02:44:19;;;;;;;6.18;3.80;;;;;;;;;;10053262;28;20481;-67
2022/08/06 02:49:25;;;;;;;5.47;3.70;;;;;;;;;;10064306;28;20490;-68
2022/08/06 02:54:24;;;;;;;9.18;3.75;;;;;;;;;;10068665;28;20049;-67
2022/08/06 02:59:21;;;;;;;5.97;3.20;;;;;;;;;;10051392;28;20046;-68
2022/08/06 03:04:15;;;;;;;6.33;3.53;;;;;;;;;;10065218;28;20053;-67
2022/08/06 03:09:11;;;;;;;5.95;3.63;;;;;;;;;;10064263;28;20049;-68
2022/08/06 03:14:08;;;;;;;6.22;3.95;;;;;;;;;;10061682;28;20505;-67
2022/08/06 03:19:22;;;;;;;6.82;3.55;;;;;;;;;;10056773;28;20038;-67
2022/08/06 03:24:36;;;;;;;4.32;3.78;;;;;;;;;;10065254;28;20046;-67
2022/08/06 03:29:29;;;;;;;3.95;3.58;;;;;;;;;;10045874;28;20045;-68
2022/08/06 03:34:26;;;;;;;3.78;3.42;;;;;;;;;;10052434;28;20057;-68
2022/08/06 03:39:21;;;;;;;7.85;3.95;;;;;;;;;;10063972;28;20434;-67
2022/08/06 03:44:15;;;;;;;8.77;3.83;;;;;;;;;;10055027;28;20061;-68
2022/08/06 03:49:12;;;;;;;5.45;3.13;;;;;;;;;;10055108;28;20505;-68
2022/08/06 03:54:07;;;;;;;6.80;4.33;;;;;;;;;;10057519;28;20529;-67
2022/08/06 03:59:03;;;;;;;4.22;3.55;;;;;;;;;;10033397;28;20300;-67
2022/08/06 04:03:58;;;;;;;9.43;3.85;;;;;;;;;;10049471;28;20453;-68
2022/08/06 04:08:52;;;;;;;7.18;3.92;;;;;;;;;;10046233;28;20064;-68
2022/08/06 04:13:45;;;;;;;5.68;3.85;;;;;;;;;;10050503;28;20422;-68
2022/08/06 04:19:00;;;;;;;7.97;4.40;;;;;;;;;;10054984;28;20049;-68
2022/08/06 04:23:54;;;;;;;7.93;4.65;;;;;;;;;;10065883;28;20107;-67
2022/08/06 04:28:51;;;;;;;4.22;3.78;;;;;;;;;;10065974;28;20076;-68
2022/08/06 04:33:52;;;;;;;5.85;3.50;;;;;;;;;;10060646;28;20490;-68
2022/08/06 04:38:47;;;;;;;4.65;4.20;;;;;;;;;;10065601;28;20077;-67
2022/08/06 04:43:43;;;;;;;4.20;3.80;;;;;;;;;;10049709;28;20034;-68
2022/08/06 04:48:45;;;;;;;4.25;3.80;;;;;;;;;;10051503;28;20103;-67
2022/08/06 04:53:43;;;;;;;;;;;;;;;;;;10053334;28;20077;-67
2022/08/06 04:58:48;;;;;;;10.25;3.80;;;;;;;;;;10062516;28;19921;-68
2022/08/06 05:03:46;;;;;;;5.72;3.97;;;;;;;;;;10060865;28;20402;-68
2022/08/06 05:09:04;;;;;;;7.43;3.95;;;;;;;;;;10062215;28;20046;-68
2022/08/06 05:14:19;;;;;;;11.60;3.97;;;;;;;;;;10058827;28;20991;-68
2022/08/06 05:19:42;;;;;;;9.77;3.75;;;;;;;;;;10068891;28;20041;-68
2022/08/06 05:24:39;;;;;;;6.38;3.85;;;;;;;;;;10056362;28;20046;-67
2022/08/06 05:29:52;;;;;;;5.60;3.67;;;;;;;;;;10061843;28;20074;-67
2022/08/06 05:34:47;;;;;;;9.38;3.95;;;;;;;;;;10069879;28;20057;-68
2022/08/06 05:39:45;;;;;;;10.63;3.85;;;;;;;;;;10063048;28;20117;-68
2022/08/06 05:44:51;;;;;;;5.78;4.10;;;;;;;;;;10063661;28;20053;-67
2022/08/06 05:49:48;;;;;;;18.52;4.90;;;;;;;;;;10071610;28;20081;-68
2022/08/06 05:55:00;;;;;;;15.52;5.35;;;;;;;;;;10057193;28;20061;-67
2022/08/06 06:00:07;;;;;;;14.15;5.22;;;;;;;;;;10052736;28;20457;-68
2022/08/06 06:05:02;;;;;;;7.70;4.90;;;;;;;;;;10066112;28;20140;-68
2022/08/06 06:10:16;;;;;;;7.68;5.57;;;;;;;;;;10062343;28;20045;-68
2022/08/06 06:15:12;;;;;;;7.22;5.22;;;;;;;;;;10064119;28;20406;-68
2022/08/06 06:20:25;;;;;;;7.72;6.72;;;;;;;;;;10064829;28;20041;-68
2022/08/06 06:25:53;;;;;;;10.85;6.03;;;;;;;;;;10058272;28;20053;-68
2022/08/06 06:31:07;;;;;;;9.20;6.72;;;;;;;;;;10063183;28;20054;-67
2022/08/06 06:36:12;;;;;;;8.13;6.05;;;;;;;;;;10064673;28;20049;-68
2022/08/06 06:41:23;;;;;;;9.50;5.97;;;;;;;;;;10066188;28;20049;-68
2022/08/06 06:46:46;;;;;;;21.75;5.40;;;;;;;;;;10063832;28;20073;-68
2022/08/06 06:51:44;;;;;;;5.28;3.50;;;;;;;;;;10062219;28;20045;-68
2022/08/06 06:56:52;;;;;;;10.77;4.30;;;;;;;;;;10065229;28;20127;-68
2022/08/06 07:01:50;;;;;;;4.07;3.78;;;;;;;;;;10056448;28;20046;-68
2022/08/06 07:06:48;;;;;;;7.18;4.25;;;;;;;;;;10057062;28;20137;-67
2022/08/06 07:11:54;;;;;;;7.00;4.07;;;;;;;;;;10057129;28;20498;-68
2022/08/06 07:16:55;;;;;;;9.75;4.63;;;;;;;;;;10058308;28;20052;-67
2022/08/06 07:21:49;;;;;;;5.10;4.15;;;;;;;;;;10060441;28;20053;-68
2022/08/06 07:26:45;;;;;;;10.00;3.67;;;;;;;;;;10054316;28;20076;-70
2022/08/06 07:31:42;;;;;;;6.32;3.20;;;;;;;;;;10065220;28;20056;-68
2022/08/06 07:36:42;;;;;;;5.50;3.80;;;;;;;;;;10062370;28;20198;-68
2022/08/06 07:41:50;;;;;;;9.60;3.33;;;;;;;;;;10064457;28;20048;-68
2022/08/06 07:47:07;;;;;;;4.75;3.45;;;;;;;;;;10052919;28;20037;-68
2022/08/06 07:52:18;;;;;;;3.47;3.17;;;;;;;;;;10051537;28;20494;-68
2022/08/06 07:57:18;;;;;;;7.47;3.40;;;;;;;;;;10057225;28;20119;-70
2022/08/06 08:02:17;;;;;;;4.82;3.38;;;;;;;;;;10053390;28;20057;-68
2022/08/06 08:07:23;;;;;;;4.38;3.00;;;;;;;;;;10061689;28;20095;-68
2022/08/06 08:12:36;;;;;;;5.13;2.95;;;;;;;;;;10056800;28;20580;-68
2022/08/06 08:17:32;;;;;;;14.80;4.10;;;;;;;;;;10056537;28;20130;-68
2022/08/06 08:22:27;;;;;;;6.57;2.60;;;;;;;;;;10059236;28;20057;-68
2022/08/06 08:27:21;;;;;;;6.00;2.83;;;;;;;;;;10045507;28;20080;-69
2022/08/06 08:32:35;;;;;;;4.05;2.15;;;;;;;;;;10064483;28;20084;-68
2022/08/06 08:37:31;;;;;;;2.85;1.90;;;;;;;;;;10048837;28;20054;-70
2022/08/06 08:42:48;;;;;;;4.05;2.22;;;;;;;;;;10053469;28;20058;-69
2022/08/06 08:47:51;;;;;;;4.60;2.60;;;;;;;;;;10047205;28;20076;-69
2022/08/06 08:52:51;;;;;;;5.40;2.20;;;;;;;;;;10066717;28;20096;-69
2022/08/06 08:57:45;;;;;;;4.47;1.83;;;;;;;;;;10064627;28;20064;-69
2022/08/06 09:03:00;;;;;;;5.80;1.65;;;;;;;;;;10069324;28;20046;-71
2022/08/06 09:07:54;;;;;;;4.65;1.70;;;;;;;;;;10059372;28;20107;-70
2022/08/06 09:12:53;;;;;;;1.60;1.50;;;;;;;;;;10071701;28;20049;-70
2022/08/06 09:17:48;;;;;;;1.65;1.55;;;;;;;;;;10065280;28;20049;-70
2022/08/06 09:23:03;;;;;;;7.43;1.90;;;;;;;;;;10065588;28;20053;-68
2022/08/06 09:28:00;;;;;;;3.05;2.10;;;;;;;;;;10068332;28;20136;-69
2022/08/06 09:32:57;;;;;;;3.13;1.90;;;;;;;;;;10066742;28;20046;-70
2022/08/06 09:38:04;;;;;;;2.05;1.85;;;;;;;;;;10084829;28;20037;-69
2022/08/06 09:43:05;;;;;;;3.65;1.40;;;;;;;;;;10071498;28;20417;-69
2022/08/06 09:48:06;;;;;;;3.45;1.90;;;;;;;;;;10067342;28;20045;-69
2022/08/06 09:53:16;;;;;;;12.27;1.90;;;;;;;;;;10059247;28;20664;-68
2022/08/06 09:58:13;;;;;;;4.55;1.90;;;;;;;;;;10066914;28;20548;-69
2022/08/06 10:03:10;;;;;;;7.65;1.60;;;;;;;;;;10069170;28;20052;-69
2022/08/06 10:08:28;;;;;;;4.22;1.70;;;;;;;;;;10066273;28;20045;-69
2022/08/06 10:13:26;;;;;;;2.10;1.42;;;;;;;;;;10066452;28;20132;-69
2022/08/06 10:18:41;;;;;;;2.60;1.60;;;;;;;;;;10059116;28;20103;-69
2022/08/06 10:23:55;;;;;;;4.93;1.40;;;;;;;;;;10060442;28;20053;-69
2022/08/06 10:28:49;;;;;;;6.60;1.63;;;;;;;;;;10065389;28;20410;-69
2022/08/06 10:34:01;;;;;;;8.55;2.45;;;;;;;;;;10066538;28;20060;-69
2022/08/06 10:38:56;;;;;;;9.85;1.95;;;;;;;;;;10070177;28;20080;-69
2022/08/06 10:43:55;;;;;;;6.68;1.77;;;;;;;;;;10066863;28;20071;-69
2022/08/06 10:48:49;;;;;;;7.97;1.98;;;;;;;;;;10057751;28;20056;-69
2022/08/06 10:54:03;;;;;;;1.95;1.40;;;;;;;;;;10067101;28;20437;-69
2022/08/06 10:59:13;;;;;;;4.57;1.67;;;;;;;;;;10056442;28;20046;-69
2022/08/06 11:04:27;;;;;;;12.68;1.60;;;;;;;;;;10063862;28;20517;-69
2022/08/06 11:09:38;;;;;;;4.60;1.60;;;;;;;;;;10063824;28;20708;-69
2022/08/06 11:14:53;;;;;;;7.63;1.80;;;;;;;;;;10060715;28;20486;-69
2022/08/06 11:19:48;;;;;;;6.40;1.88;;;;;;;;;;10058251;28;20421;-69
2022/08/06 11:24:53;;;;;;;4.70;1.70;;;;;;;;;;10056507;28;20057;-70
2022/08/06 11:30:11;;;;;;;2.58;1.60;;;;;;;;;;10062233;28;20046;-69
2022/08/06 11:35:32;;;;;;;2.63;1.80;;;;;;;;;;10064231;28;20049;-72
2022/08/06 11:41:01;;;;;;;7.78;2.15;;;;;;;;;;10062416;28;20053;-70
2022/08/06 11:46:26;;;;;;;4.72;1.90;;;;;;;;;;10055244;28;20129;-70
2022/08/06 11:51:42;;;;;;;5.45;1.63;;;;;;;;;;10054502;28;20049;-70
2022/08/06 11:56:35;;;;;;;6.32;1.77;;;;;;;;;;10061959;28;20053;-69
2022/08/06 12:01:45;;;;;;;3.75;1.73;;;;;;;;;;10064768;28;20052;-68
2022/08/06 12:06:40;;;;;;;4.32;2.15;;;;;;;;;;10064762;28;20041;-69
2022/08/06 12:11:37;;;;;;;2.70;1.90;;;;;;;;;;10055377;28;20054;-70
2022/08/06 12:16:34;;;;;;;4.57;2.15;;;;;;;;;;10062210;28;20045;-69
2022/08/06 12:21:38;;;;;;;2.42;2.03;;;;;;;;;;10059934;28;20049;-68
2022/08/06 12:26:39;;;;;;;8.73;2.30;;;;;;;;;;10065940;28;20178;-68
2022/08/06 12:31:35;;;;;;;5.93;2.97;;;;;;;;;;10064451;28;20425;-68
2022/08/06 12:36:42;;;;;;;2.95;1.88;;;;;;;;;;10065099;28;20050;-68
2022/08/06 12:41:39;;;;;;;4.35;2.75;;;;;;;;;;10065891;28;20060;-68
2022/08/06 12:46:38;;;;;;;8.88;2.90;;;;;;;;;;10065596;28;20569;-68
2022/08/06 12:51:32;;;;;;;3.05;2.25;;;;;;;;;;10055721;28;20050;-67
2022/08/06 12:56:28;;;;;;;11.88;2.83;;;;;;;;;;10064921;28;20088;-68
2022/08/06 13:01:27;;;;;;;5.43;2.15;;;;;;;;;;10065491;28;20042;-68
2022/08/06 13:06:42;;;;;;;8.18;2.67;;;;;;;;;;10060086;28;20048;-68
2022/08/06 13:11:39;;;;;;;5.95;3.38;;;;;;;;;;10065735;28;20112;-69
2022/08/06 13:16:40;;;;;;;3.28;2.53;;;;;;;;;;10065392;28;20132;-68
2022/08/06 13:21:59;;;;;;;8.02;3.88;;;;;;;;;;10065502;28;20774;-68
2022/08/06 13:26:58;;;;;;;4.35;3.17;;;;;;;;;;10054330;28;20571;-68
2022/08/06 13:32:09;;;;;;;7.68;2.80;;;;;;;;;;10065357;28;20046;-68
2022/08/06 13:38:00;;;;;;;9.27;2.58;;;;;;;;;;10071566;28;20052;-68
2022/08/06 13:43:41;;;;;;;6.63;3.22;;;;;;;;;;10025152;28;20061;-68
2022/08/06 13:49:08;;;;;;;4.40;2.63;;;;;;;;;;10071644;28;20060;-68
2022/08/06 13:54:27;;;;;;;5.95;3.00;;;;;;;;;;10071520;28;20063;-68
2022/08/06 13:59:41;;;;;;;8.07;2.88;;;;;;;;;;10066784;28;20061;-68
2022/08/06 14:04:56;;;;;;;6.87;2.80;;;;;;;;;;10070898;28;20053;-68
2022/08/06 14:10:09;;;;;;;9.60;2.78;;;;;;;;;;10070954;28;20145;-68
2022/08/06 14:15:47;;;;;;;2.45;2.25;;;;;;;;;;10070618;28;20104;-67
2022/08/06 14:21:21;;;;;;;4.38;2.28;;;;;;;;;;10062341;28;20114;-67
2022/08/06 14:26:39;;;;;;;5.22;3.20;;;;;;;;;;10062423;28;20516;-67
2022/08/06 14:31:55;;;;;;;12.38;2.30;;;;;;;;;;10065766;28;20052;-66
2022/08/06 14:36:50;;;;;;;9.40;2.45;;;;;;;;;;10063413;28;20232;-63
2022/08/06 14:47:04;;;;;;;6.88;2.78;;;;;;;;;;10063155;28;20524;-65
2022/08/06 14:52:02;;;;;;;8.95;2.83;;;;;;;;;;10061810;28;20045;-66
2022/08/06 14:57:35;;;;;;;6.85;2.38;;;;;;;;;;10064666;28;20518;-66
2022/08/06 15:03:28;;;;;;;10.48;3.05;;;;;;;;;;10065134;28;20075;-72
2022/08/06 15:08:25;;;;;;;4.00;2.85;;;;;;;;;;10069489;28;20042;-65
2022/08/06 15:13:21;;;;;;;5.78;2.08;;;;;;;;;;10064323;28;20478;-65
2022/08/06 15:18:30;;;;;;;6.80;2.45;;;;;;;;;;10066147;28;20053;-65
2022/08/06 15:23:45;;;;;;;12.25;2.47;;;;;;;;;;10066854;28;20046;-67
2022/08/06 15:29:08;;;;;;;7.10;2.50;;;;;;;;;;10062577;28;20552;-65
2022/08/06 15:34:08;;;;;;;8.02;2.38;;;;;;;;;;10062965;28;20059;-66
2022/08/06 15:39:04;;;;;;;8.20;2.17;;;;;;;;;;10076541;28;20054;-66
2022/08/06 15:44:01;;;;;;;8.32;2.30;;;;;;;;;;10065493;28;20076;-65
2022/08/06 15:48:56;;;;;;;6.30;2.38;;;;;;;;;;10067674;28;20457;-65
2022/08/06 15:53:54;;;;;;;8.23;2.85;;;;;;;;;;10066876;28;20057;-66
2022/08/06 15:58:53;;;;;;;5.15;3.08;;;;;;;;;;10061298;28;20068;-66
2022/08/06 16:03:46;;;;;;;3.40;2.65;;;;;;;;;;10066399;28;20053;-66
2022/08/06 16:08:51;;;;;;;6.18;3.10;;;;;;;;;;10056680;28;20456;-65
2022/08/06 16:13:52;;;;;;;14.68;3.35;;;;;;;;;;10057554;28;20052;-68
2022/08/06 16:18:46;;;;;;;3.10;2.50;;;;;;;;;;10059653;28;20056;-62
2022/08/06 16:23:45;;;;;;;5.65;3.15;;;;;;;;;;10061694;28;20477;-64
2022/08/06 16:28:55;;;;;;;5.53;2.50;;;;;;;;;;10061302;28;20055;-66
2022/08/06 16:33:49;;;;;;;7.95;3.35;;;;;;;;;;10060667;28;20068;-65
2022/08/06 16:38:47;;;;;;;3.28;3.00;;;;;;;;;;10062526;28;20087;-65
2022/08/06 16:43:46;;;;;;;10.80;3.53;;;;;;;;;;10061991;28;20390;-68
2022/08/06 16:48:44;;;;;;;6.45;3.05;;;;;;;;;;10061010;28;20129;-66
2022/08/06 16:53:39;;;;;;;6.78;3.67;;;;;;;;;;10059883;28;20119;-64
2022/08/06 16:58:52;;;;;;;4.85;3.10;;;;;;;;;;10058015;28;20034;-66
2022/08/06 17:03:46;;;;;;;10.20;3.40;;;;;;;;;;10061541;28;20073;-68
2022/08/06 17:08:40;;;;;;;10.27;3.50;;;;;;;;;;10063763;28;20462;-65
2022/08/06 17:13:45;;;;;;;4.78;2.75;;;;;;;;;;10065752;28;20084;-67
2022/08/06 17:18:47;;;;;;;9.07;3.03;;;;;;;;;;10068476;28;20049;-65
2022/08/06 17:24:01;;;;;;;4.43;3.30;;;;;;;;;;10069936;28;20046;-68
2022/08/06 17:28:55;;;;;;;12.65;2.90;;;;;;;;;;10066000;28;20046;-68
2022/08/06 17:33:49;;;;;;;18.45;3.55;;;;;;;;;;10072208;28;20061;-70
2022/08/06 17:38:43;;;;;;;15.40;3.80;;;;;;;;;;10066166;28;20038;-70
2022/08/06 17:43:37;;;;;;;16.05;3.00;;;;;;;;;;10068808;28;20429;-68
2022/08/06 17:48:50;;;;;;;8.55;3.45;;;;;;;;;;10068772;28;20060;-70
2022/08/06 17:53:45;;;;;;;12.38;2.97;;;;;;;;;;10070402;28;20057;-73
2022/08/06 17:58:46;;;;;;;5.63;2.88;;;;;;;;;;10071746;28;20046;-72
2022/08/06 18:03:50;;;;;;;5.85;2.47;;;;;;;;;;10065059;28;20059;-72
2022/08/06 18:08:53;;;;;;;9.45;2.90;;;;;;;;;;10071096;28;20054;-72
2022/08/06 18:13:50;;;;;;;6.65;3.60;;;;;;;;;;10070613;28;20064;-72
2022/08/06 18:18:49;;;;;;;13.95;3.15;;;;;;;;;;10070015;28;20075;-70
2022/08/06 18:23:43;;;;;;;7.38;3.13;;;;;;;;;;10069670;28;20045;-65
2022/08/06 18:28:38;;;;;;;12.82;3.00;;;;;;;;;;10070262;28;20087;-68
2022/08/06 18:33:43;;;;;;;5.65;3.05;;;;;;;;;;10070015;28;20107;-68
2022/08/06 18:38:46;;;;;;;8.05;2.50;;;;;;;;;;10068645;28;20049;-66
2022/08/06 18:43:41;;;;;;;4.55;2.90;;;;;;;;;;10065642;28;20053;-65
2022/08/06 18:48:50;;;;;;;10.30;4.10;;;;;;;;;;10062021;28;20394;-66
2022/08/06 18:53:44;;;;;;;6.05;4.40;;;;;;;;;;10065573;28;20064;-64
2022/08/06 18:58:58;;;;;;;6.40;4.57;;;;;;;;;;10067944;28;20046;-66
2022/08/06 19:03:53;;;;;;;8.60;4.25;;;;;;;;;;10068848;28;20061;-68
2022/08/06 19:08:47;;;;;;;7.47;4.32;;;;;;;;;;10065277;28;20456;-66
2022/08/06 19:13:41;;;;;;;6.93;4.57;;;;;;;;;;10067047;28;20041;-66
2022/08/06 19:18:56;;;;;;;5.80;4.13;;;;;;;;;;10065888;28;20057;-65
2022/08/06 19:23:51;;;;;;;4.30;3.40;;;;;;;;;;10067999;28;20124;-68
2022/08/06 19:28:58;;;;;;;13.90;4.68;;;;;;;;;;10064546;28;20452;-64
2022/08/06 19:33:54;;;;;;;6.70;3.67;;;;;;;;;;10052634;28;20510;-63
2022/08/06 19:38:49;;;;;;;7.10;3.75;;;;;;;;;;10059619;28;20478;-63
2022/08/06 19:43:44;;;;;;;17.02;4.22;;;;;;;;;;10063082;28;20053;-75
2022/08/06 19:49:01;;;;;;;8.88;4.15;;;;;;;;;;10061676;28;20045;-65
2022/08/06 19:54:00;;;;;;;12.98;3.90;;;;;;;;;;10062356;28;20490;-72
2022/08/06 19:58:57;;;;;;;8.50;2.70;;;;;;;;;;10059685;28;20457;-74
2022/08/06 20:04:11;;;;;;;14.65;3.58;;;;;;;;;;10059237;28;20046;-75
2022/08/06 20:09:08;;;;;;;;;;;;;;;;;;10063589;28;20133;-76
2022/08/06 20:14:19;;;;;;;4.35;3.22;;;;;;;;;;10062982;28;19925;-77
2022/08/06 20:19:12;;;;;;;4.20;2.97;;;;;;;;;;10060819;28;20045;-69
2022/08/06 20:24:07;;;;;;;8.65;3.65;;;;;;;;;;10061019;28;20049;-68
2022/08/06 20:29:01;;;;;;;10.30;3.95;;;;;;;;;;10064213;28;20505;-70
2022/08/06 20:34:13;;;;;;;7.28;3.45;;;;;;;;;;10064533;28;20091;-68
2022/08/06 20:39:20;;;;;;;6.20;3.30;;;;;;;;;;10064581;28;20049;-68
2022/08/06 20:44:16;;;;;;;10.50;3.60;;;;;;;;;;10068203;28;20053;-68
2022/08/06 20:49:11;;;;;;;7.70;3.17;;;;;;;;;;10073619;28;20041;-68
2022/08/06 20:54:06;;;;;;;20.20;5.82;;;;;;;;;;10070383;28;20109;-73
2022/08/06 20:59:11;;;;;;;5.53;2.58;;;;;;;;;;10071448;28;20056;-71
2022/08/06 21:04:06;;;;;;;6.53;2.55;;;;;;;;;;10072739;28;20069;-74
2022/08/06 21:09:19;;;;;;;3.90;2.80;;;;;;;;;;10067954;28;20053;-70
2022/08/06 21:14:15;;;;;;;4.40;2.75;;;;;;;;;;10069748;28;20053;-76
2022/08/06 21:19:23;;;;;;;2.75;2.20;;;;;;;;;;10068474;28;20041;-72
2022/08/06 21:24:33;;;;;;;3.15;2.78;;;;;;;;;;10070436;28;20552;-69
2022/08/06 21:29:28;;;;;;;4.60;3.45;;;;;;;;;;10068423;28;20053;-68
2022/08/06 21:34:42;;;;;;;2.90;2.65;;;;;;;;;;10064674;28;20050;-71
2022/08/06 21:39:36;;;;;;;4.30;2.50;;;;;;;;;;10068036;28;20053;-67
2022/08/06 21:44:49;;;;;;;5.13;2.78;;;;;;;;;;10050194;28;20058;-70
2022/08/06 21:49:44;;;;;;;3.00;2.70;;;;;;;;;;10066416;28;20049;-74
2022/08/06 21:54:59;;;;;;;4.38;2.47;;;;;;;;;;10064364;28;20053;-72
2022/08/06 22:00:08;;;;;;;2.88;2.40;;;;;;;;;;10065646;28;20472;-70
2022/08/06 22:05:05;;;;;;;3.28;2.60;;;;;;;;;;10048304;28;20060;-72
2022/08/06 22:10:20;;;;;;;5.28;2.60;;;;;;;;;;10060599;28;20050;-71
2022/08/06 22:15:25;;;;;;;3.90;2.42;;;;;;;;;;10052611;28;20046;-72
2022/08/06 22:20:38;;;;;;;2.50;2.30;;;;;;;;;;10064881;28;20076;-73
2022/08/06 22:25:34;;;;;;;7.13;2.28;;;;;;;;;;10053950;28;20052;-71
2022/08/06 22:30:32;;;;;;;3.33;2.67;;;;;;;;;;10063584;28;20038;-71
2022/08/06 22:35:30;;;;;;;4.20;2.47;;;;;;;;;;10045457;28;20050;-71
2022/08/06 22:40:35;;;;;;;3.15;2.67;;;;;;;;;;10055428;28;20115;-70
2022/08/06 22:45:29;;;;;;;3.35;2.63;;;;;;;;;;10062735;28;20533;-71
2022/08/06 22:50:42;;;;;;;8.77;3.53;;;;;;;;;;10059674;28;20164;-71
2022/08/06 22:55:43;;;;;;;4.75;4.07;;;;;;;;;;10048174;28;20464;-70
2022/08/06 23:00:40;;;;;;;6.68;3.70;;;;;;;;;;10056548;28;20053;-71
2022/08/06 23:05:38;;;;;;;5.38;3.00;;;;;;;;;;10067344;28;20049;-71
2022/08/06 23:10:36;;;;;;;4.68;3.53;;;;;;;;;;10053782;28;20045;-70
2022/08/06 23:15:41;;;;;;;4.65;3.30;;;;;;;;;;10061649;28;20064;-72
2022/08/06 23:20:40;;;;;;;7.20;3.05;;;;;;;;;;10055375;28;20068;-72
2022/08/06 23:25:36;;;;;;;4.43;3.60;;;;;;;;;;10053795;28;20076;-72
2022/08/06 23:30:51;;;;;;;9.00;4.00;;;;;;;;;;10059859;28;20436;-72
2022/08/06 23:35:45;;;;;;;8.27;3.60;;;;;;;;;;10065876;28;20056;-72
2022/08/06 23:40:42;;;;;;;13.57;4.80;;;;;;;;;;10045604;28;20413;-72
2022/08/06 23:45:43;;;;;;;8.18;5.20;;;;;;;;;;10055285;28;20061;-72
2022/08/06 23:50:39;;;;;;;11.02;5.88;;;;;;;;;;10057418;28;20053;-72
2022/08/06 23:55:45;;;;;;;5.10;4.32;;;;;;;;;;10064169;28;20128;-71
